Time;durP1;ratioP1;P1;durP2;ratioP2;P2;SDS_P1;SDS_P2;PMS_P1;PMS_P2;Temp;Humidity;BMP_temperature;BMP_pressure;BME280_temperature;BME280_humidity;BME280_pressure;Samples;Min_cycle;Max_cycle;Signal;HPM_P1;HPM_P2
2023/04/07 00:01:49;;;;;;;25.30;18.13;;;7.10;99.90;;;;;;5064310;28;20136;-83
2023/04/07 00:04:15;;;;;;;24.67;17.48;;;7.10;99.90;;;;;;5082018;28;20146;-83
2023/04/07 00:06:42;;;;;;;23.20;17.50;;;7.10;99.90;;;;;;5067180;28;20101;-84
2023/04/07 00:09:09;;;;;;;25.10;18.98;;;7.10;99.90;;;;;;5084793;28;20142;-84
2023/04/07 00:11:35;;;;;;;24.10;19.02;;;7.10;99.90;;;;;;5058233;28;20036;-84
2023/04/07 00:14:00;;;;;;;27.98;18.25;;;7.10;99.90;;;;;;5081002;28;20048;-83
2023/04/07 00:16:26;;;;;;;26.67;18.58;;;7.10;99.90;;;;;;5083486;28;20445;-84
2023/04/07 00:18:52;;;;;;;23.92;18.27;;;7.10;99.90;;;;;;5083344;28;20127;-83
2023/04/07 00:21:17;;;;;;;24.33;17.63;;;7.10;99.90;;;;;;5067863;28;20051;-84
2023/04/07 00:23:43;;;;;;;27.15;18.67;;;7.10;99.90;;;;;;5060516;28;20055;-84
2023/04/07 00:26:09;;;;;;;25.10;18.35;;;7.10;99.90;;;;;;5081641;28;20537;-84
2023/04/07 00:28:35;;;;;;;26.88;18.80;;;7.10;99.90;;;;;;5087722;28;20075;-84
2023/04/07 00:31:00;;;;;;;27.00;19.40;;;7.10;99.90;;;;;;5084065;28;20384;-84
2023/04/07 00:33:26;;;;;;;26.67;18.65;;;7.10;99.90;;;;;;5049440;28;20068;-84
2023/04/07 00:35:53;;;;;;;24.60;18.45;;;7.00;99.90;;;;;;5086228;28;20059;-84
2023/04/07 00:38:19;;;;;;;26.95;18.85;;;7.10;99.90;;;;;;5085544;28;20542;-84
2023/04/07 00:40:44;;;;;;;26.50;18.95;;;7.10;99.90;;;;;;5066000;28;20139;-84
2023/04/07 00:43:10;;;;;;;25.25;17.92;;;7.10;99.90;;;;;;5068814;28;20040;-84
2023/04/07 00:45:36;;;;;;;23.83;17.63;;;7.80;99.90;;;;;;5083907;28;20036;-84
2023/04/07 00:48:03;;;;;;;28.90;20.08;;;7.10;99.90;;;;;;5065193;28;20048;-83
2023/04/07 00:50:28;;;;;;;25.15;17.85;;;7.00;99.90;;;;;;5066404;28;20032;-84
2023/04/07 00:52:55;;;;;;;25.90;18.00;;;7.00;99.90;;;;;;5077502;28;20395;-84
2023/04/07 00:55:21;;;;;;;23.92;17.92;;;7.00;99.90;;;;;;5083276;28;20040;-84
2023/04/07 00:57:47;;;;;;;24.48;18.20;;;7.10;99.90;;;;;;5070169;28;20076;-84
2023/04/07 01:00:14;;;;;;;24.88;18.05;;;7.00;99.90;;;;;;5088503;28;20737;-84
2023/04/07 01:03:01;;;;;;;25.67;18.13;;;7.10;99.90;;;;;;5053841;28;20043;-84
2023/04/07 01:05:32;;;;;;;25.05;18.13;;;7.10;99.90;;;;;;5082315;28;20109;-84
2023/04/07 01:08:16;;;;;;;26.77;18.30;;;7.00;99.90;;;;;;5069787;28;20045;-84
2023/04/07 01:10:50;;;;;;;22.58;16.30;;;7.10;99.90;;;;;;5079937;28;20480;-84
2023/04/07 01:13:30;;;;;;;23.98;17.85;;;7.00;99.90;;;;;;5090904;28;20074;-84
2023/04/07 01:15:59;;;;;;;23.95;17.35;;;7.00;99.90;;;;;;5068598;28;20052;-84
2023/04/07 01:18:33;;;;;;;26.15;17.67;;;7.00;99.90;;;;;;5069666;28;20123;-83
2023/04/07 01:21:13;;;;;;;22.67;17.38;;;7.00;99.90;;;;;;5087507;28;20044;-83
2023/04/07 01:23:51;;;;;;;23.88;17.85;;;7.00;99.90;;;;;;5067429;28;20044;-84
2023/04/07 01:26:25;;;;;;;22.45;16.42;;;7.00;99.90;;;;;;5087658;28;20454;-84
2023/04/07 01:29:25;;;;;;;23.90;17.55;;;7.00;99.90;;;;;;5068859;28;20044;-84
2023/04/07 01:31:54;;;;;;;22.58;16.70;;;7.00;99.90;;;;;;5010451;28;20442;-84
2023/04/07 01:34:22;;;;;;;23.70;18.13;;;7.00;99.90;;;;;;5047615;28;20052;-84
2023/04/07 01:36:50;;;;;;;24.67;17.90;;;7.00;99.90;;;;;;5078212;28;20078;-83
2023/04/07 01:39:17;;;;;;;23.27;17.27;;;7.00;99.90;;;;;;5087333;28;20051;-84
2023/04/07 01:41:44;;;;;;;21.42;15.77;;;7.00;99.90;;;;;;5071346;28;20093;-85
2023/04/07 01:44:10;;;;;;;23.88;17.48;;;7.10;99.90;;;;;;5067100;28;20050;-84
2023/04/07 01:46:35;;;;;;;22.73;16.98;;;7.10;99.90;;;;;;5083839;28;20051;-84
2023/04/07 01:49:02;;;;;;;22.00;15.93;;;7.10;99.90;;;;;;5089243;28;20048;-84
2023/04/07 01:51:31;;;;;;;20.77;16.52;;;7.10;99.90;;;;;;5087656;28;20524;-84
2023/04/07 01:53:58;;;;;;;22.02;16.38;;;7.10;99.90;;;;;;5087451;28;20486;-84
2023/04/07 01:56:23;;;;;;;23.35;16.63;;;7.10;99.90;;;;;;5088055;28;20126;-84
2023/04/07 01:58:49;;;;;;;22.67;16.42;;;7.10;99.90;;;;;;5086079;28;20143;-84
2023/04/07 02:01:15;;;;;;;23.35;17.05;;;7.10;99.90;;;;;;5087889;28;20058;-84
2023/04/07 02:04:20;;;;;;;22.63;16.40;;;7.10;99.90;;;;;;5090152;28;20052;-84
2023/04/07 02:06:54;;;;;;;20.60;16.08;;;7.30;99.90;;;;;;5067618;28;20170;-83
2023/04/07 02:09:23;;;;;;;19.63;15.68;;;7.00;99.90;;;;;;5085207;28;20043;-83
2023/04/07 02:11:50;;;;;;;20.27;16.13;;;7.10;99.90;;;;;;5087531;28;20036;-83
2023/04/07 02:14:16;;;;;;;23.60;16.08;;;7.50;99.90;;;;;;5087632;28;20048;-83
2023/04/07 02:16:43;;;;;;;21.20;16.17;;;7.10;99.90;;;;;;5087171;28;20044;-83
2023/04/07 02:19:09;;;;;;;21.85;16.50;;;7.10;99.90;;;;;;5087460;28;20505;-83
2023/04/07 02:21:35;;;;;;;22.02;15.60;;;7.10;99.90;;;;;;5085034;28;20044;-83
2023/04/07 02:24:04;;;;;;;19.83;15.50;;;7.10;99.90;;;;;;5086198;28;20224;-84
2023/04/07 02:26:34;;;;;;;20.17;15.15;;;7.10;99.90;;;;;;5070170;28;20486;-83
2023/04/07 02:29:01;;;;;;;21.90;17.10;;;7.60;99.90;;;;;;5069266;28;20040;-83
2023/04/07 02:31:28;;;;;;;24.65;16.65;;;7.10;99.90;;;;;;5085990;28;20095;-84
2023/04/07 02:33:53;;;;;;;21.90;16.65;;;7.10;99.90;;;;;;5053842;28;20044;-84
2023/04/07 02:36:19;;;;;;;23.20;16.45;;;7.10;99.90;;;;;;5087345;28;20043;-84
2023/04/07 02:38:44;;;;;;;23.25;16.38;;;7.10;99.90;;;;;;5082243;28;20060;-84
2023/04/07 02:41:10;;;;;;;23.38;16.52;;;7.10;99.90;;;;;;5067676;28;20150;-83
2023/04/07 02:43:36;;;;;;;20.15;15.30;;;7.10;99.90;;;;;;5087507;28;20329;-83
2023/04/07 02:46:01;;;;;;;21.88;16.67;;;7.10;99.90;;;;;;5068418;28;20051;-83
2023/04/07 02:48:27;;;;;;;20.83;15.88;;;7.10;99.90;;;;;;5087388;28;20087;-83
2023/04/07 02:50:52;;;;;;;22.75;16.63;;;7.10;99.90;;;;;;5068157;28;20043;-83
2023/04/07 02:53:18;;;;;;;22.75;16.95;;;7.10;99.90;;;;;;5086546;28;20075;-83
2023/04/07 02:55:44;;;;;;;21.67;15.63;;;7.10;99.90;;;;;;5086900;28;20131;-83
2023/04/07 02:58:10;;;;;;;23.42;17.45;;;7.10;99.90;;;;;;5068393;28;20055;-83
2023/04/07 03:00:35;;;;;;;21.08;16.02;;;7.10;99.90;;;;;;5087663;28;20040;-83
2023/04/07 03:03:01;;;;;;;23.70;16.58;;;7.10;99.90;;;;;;5087430;28;20435;-83
2023/04/07 03:05:27;;;;;;;23.10;16.80;;;7.00;99.90;;;;;;5085996;28;20055;-83
2023/04/07 03:07:52;;;;;;;23.67;16.92;;;7.10;99.90;;;;;;5085498;28;20059;-83
2023/04/07 03:10:18;;;;;;;21.73;16.95;;;7.10;99.90;;;;;;5067441;28;20225;-83
2023/04/07 03:12:43;;;;;;;23.33;16.77;;;7.10;99.90;;;;;;5049382;28;20040;-84
2023/04/07 03:15:09;;;;;;;24.10;17.13;;;7.10;99.90;;;;;;5073707;28;20056;-84
2023/04/07 03:17:35;;;;;;;23.25;16.83;;;7.10;99.90;;;;;;5069227;28;20047;-84
2023/04/07 03:20:01;;;;;;;22.30;17.35;;;7.10;99.90;;;;;;5086583;28;20044;-84
2023/04/07 03:22:33;;;;;;;23.52;16.98;;;7.10;99.90;;;;;;5084587;28;20052;-83
2023/04/07 03:24:59;;;;;;;23.37;17.43;;;7.10;99.90;;;;;;5081836;28;20047;-83
2023/04/07 03:27:25;;;;;;;23.33;16.85;;;7.10;99.90;;;;;;5086612;28;20044;-83
2023/04/07 03:29:51;;;;;;;22.50;16.67;;;7.10;99.90;;;;;;5067916;28;20040;-84
2023/04/07 03:32:17;;;;;;;23.30;17.40;;;7.10;99.90;;;;;;5067583;28;20040;-84
2023/04/07 03:34:43;;;;;;;22.05;16.90;;;7.10;99.90;;;;;;5068833;28;20044;-84
2023/04/07 03:37:08;;;;;;;23.05;17.08;;;7.10;99.90;;;;;;5063131;28;20457;-83
2023/04/07 03:39:36;;;;;;;25.20;17.48;;;7.10;99.90;;;;;;5062976;28;20052;-84
2023/04/07 03:42:02;;;;;;;23.27;17.73;;;7.10;99.90;;;;;;5064359;28;20048;-84
2023/04/07 03:44:28;;;;;;;24.48;17.30;;;7.10;99.90;;;;;;5051428;28;20394;-84
2023/04/07 03:46:53;;;;;;;23.17;16.52;;;7.10;99.90;;;;;;5066359;28;20040;-84
2023/04/07 03:49:19;;;;;;;24.23;17.27;;;7.10;99.90;;;;;;5065525;28;20467;-84
2023/04/07 03:51:44;;;;;;;20.38;16.27;;;7.10;99.90;;;;;;5063882;28;20041;-83
2023/04/07 03:54:10;;;;;;;23.33;16.25;;;7.10;99.90;;;;;;5066608;28;20081;-83
2023/04/07 03:56:36;;;;;;;24.20;16.95;;;7.10;99.90;;;;;;5067054;28;20090;-83
2023/04/07 03:59:02;;;;;;;23.33;16.80;;;7.10;99.90;;;;;;5066266;28;20719;-83
2023/04/07 04:01:28;;;;;;;24.48;16.65;;;7.10;99.90;;;;;;5066735;28;20491;-83
2023/04/07 04:03:53;;;;;;;25.58;17.23;;;7.10;99.90;;;;;;5064867;28;20051;-83
2023/04/07 04:06:19;;;;;;;23.13;17.25;;;7.10;99.90;;;;;;5065996;28;20047;-83
2023/04/07 04:08:44;;;;;;;21.40;16.63;;;7.10;99.90;;;;;;5065730;28;20063;-83
2023/04/07 04:11:11;;;;;;;24.38;17.17;;;7.00;99.90;;;;;;5061266;28;20049;-83
2023/04/07 04:13:37;;;;;;;22.55;16.75;;;7.30;99.90;;;;;;5065363;28;20056;-83
2023/04/07 04:16:02;;;;;;;23.35;16.67;;;7.00;99.90;;;;;;5060392;28;20040;-83
2023/04/07 04:18:28;;;;;;;22.55;15.65;;;7.00;99.90;;;;;;5064530;28;20049;-83
2023/04/07 04:20:54;;;;;;;21.98;16.52;;;7.00;99.90;;;;;;5066430;28;20490;-84
2023/04/07 04:23:19;;;;;;;21.95;16.85;;;7.00;99.90;;;;;;5065613;28;20744;-84
2023/04/07 04:25:45;;;;;;;23.42;15.85;;;7.00;99.90;;;;;;5038829;28;20049;-83
2023/04/07 04:28:10;;;;;;;25.67;17.58;;;7.00;99.90;;;;;;5055534;28;20049;-83
2023/04/07 04:30:36;;;;;;;24.20;16.95;;;7.00;99.90;;;;;;5065261;28;20041;-83
2023/04/07 04:33:02;;;;;;;23.55;17.33;;;6.90;99.90;;;;;;5068619;28;20131;-83
2023/04/07 04:35:27;;;;;;;24.10;16.52;;;7.00;99.90;;;;;;5068208;28;20047;-83
2023/04/07 04:37:53;;;;;;;22.30;16.70;;;6.90;99.90;;;;;;5072730;28;20052;-83
2023/04/07 04:40:19;;;;;;;23.27;16.83;;;7.00;99.90;;;;;;5079430;28;20473;-83
2023/04/07 04:42:44;;;;;;;22.08;16.65;;;7.00;99.90;;;;;;5088949;28;20056;-83
2023/04/07 04:45:10;;;;;;;24.33;16.60;;;6.90;99.90;;;;;;5089459;28;20036;-83
2023/04/07 04:47:37;;;;;;;23.65;15.98;;;6.90;99.90;;;;;;5088584;28;20401;-83
2023/04/07 04:50:04;;;;;;;24.83;15.88;;;6.90;99.90;;;;;;5071736;28;20043;-83
2023/04/07 04:52:30;;;;;;;24.38;17.27;;;6.90;99.90;;;;;;5071144;28;20048;-82
2023/04/07 04:54:56;;;;;;;24.02;16.90;;;6.90;99.90;;;;;;5055013;28;20155;-83
2023/04/07 04:57:21;;;;;;;24.13;17.77;;;6.90;99.90;;;;;;5067235;28;20051;-83
2023/04/07 04:59:47;;;;;;;24.00;16.27;;;6.90;99.90;;;;;;5087355;28;20172;-83
2023/04/07 05:02:12;;;;;;;27.15;17.23;;;6.90;99.90;;;;;;5088820;28;20115;-82
2023/04/07 05:04:38;;;;;;;28.20;17.13;;;6.90;99.90;;;;;;5086791;28;20085;-84
2023/04/07 05:07:03;;;;;;;25.10;16.92;;;6.90;99.90;;;;;;5088728;28;20044;-84
2023/04/07 05:09:29;;;;;;;29.35;17.55;;;6.90;99.90;;;;;;5071593;28;20078;-82
2023/04/07 05:11:56;;;;;;;27.70;18.38;;;6.90;99.90;;;;;;5068515;28;20084;-85
2023/04/07 05:14:22;;;;;;;26.58;17.77;;;6.90;99.90;;;;;;5088868;28;20040;-84
2023/04/07 05:16:51;;;;;;;30.30;17.55;;;6.90;99.90;;;;;;5081847;28;20083;-85
2023/04/07 05:19:17;;;;;;;24.88;17.58;;;6.90;99.90;;;;;;5071423;28;20052;-84
2023/04/07 05:21:42;;;;;;;25.42;18.13;;;6.90;99.90;;;;;;5090823;28;20444;-84
2023/04/07 05:24:09;;;;;;;25.75;17.70;;;6.90;99.90;;;;;;5089686;28;20058;-84
2023/04/07 05:26:34;;;;;;;26.23;17.25;;;6.90;99.90;;;;;;5086912;28;20055;-82
2023/04/07 05:29:00;;;;;;;26.10;18.33;;;6.90;99.90;;;;;;5089723;28;20105;-85
2023/04/07 05:31:26;;;;;;;28.42;18.02;;;6.90;99.90;;;;;;5072195;28;20093;-83
2023/04/07 05:33:51;;;;;;;26.92;18.80;;;6.90;99.90;;;;;;5089852;28;20079;-83
2023/04/07 05:36:17;;;;;;;25.35;17.63;;;6.90;99.90;;;;;;5072476;28;20044;-83
2023/04/07 05:38:43;;;;;;;25.88;18.13;;;6.90;99.90;;;;;;5090217;28;20060;-83
2023/04/07 05:41:09;;;;;;;29.10;18.58;;;6.90;99.90;;;;;;5081179;28;20398;-84
2023/04/07 05:43:34;;;;;;;28.45;18.38;;;6.90;99.90;;;;;;5078533;28;20056;-83
2023/04/07 05:46:00;;;;;;;29.75;19.20;;;6.90;99.90;;;;;;5090420;28;20044;-83
2023/04/07 05:48:25;;;;;;;27.50;19.20;;;6.90;99.90;;;;;;5089856;28;20048;-84
2023/04/07 05:50:51;;;;;;;26.10;18.50;;;6.90;99.90;;;;;;5071327;28;20068;-83
2023/04/07 05:53:17;;;;;;;27.02;18.83;;;6.90;99.90;;;;;;5089931;28;20387;-83
2023/04/07 05:55:42;;;;;;;28.88;18.85;;;6.90;99.90;;;;;;5086043;28;20047;-83
2023/04/07 05:58:08;;;;;;;28.95;19.85;;;6.90;99.90;;;;;;5068848;28;20044;-84
2023/04/07 06:00:34;;;;;;;28.40;19.30;;;6.90;99.90;;;;;;5089757;28;20109;-84
2023/04/07 06:03:00;;;;;;;28.00;19.42;;;6.90;99.90;;;;;;5090007;28;20510;-84
2023/04/07 06:05:26;;;;;;;31.20;18.67;;;6.90;99.90;;;;;;5071930;28;20079;-84
2023/04/07 06:07:53;;;;;;;28.02;18.20;;;6.90;99.90;;;;;;5089112;28;20303;-84
2023/04/07 06:10:19;;;;;;;26.35;18.90;;;7.00;99.90;;;;;;5090015;28;20051;-84
2023/04/07 06:12:44;;;;;;;26.08;18.52;;;6.90;99.90;;;;;;5089338;28;20036;-85
2023/04/07 06:15:10;;;;;;;29.80;19.63;;;7.00;99.90;;;;;;5089278;28;20044;-84
2023/04/07 06:17:35;;;;;;;25.50;17.98;;;7.00;99.90;;;;;;5088725;28;20166;-84
2023/04/07 06:20:01;;;;;;;27.65;18.35;;;7.00;99.90;;;;;;5089472;28;20051;-84
2023/04/07 06:22:27;;;;;;;24.88;17.80;;;7.00;99.90;;;;;;5069408;28;20052;-84
2023/04/07 06:24:52;;;;;;;29.17;18.83;;;7.10;99.90;;;;;;5070340;28;20334;-84
2023/04/07 06:27:18;;;;;;;26.90;18.85;;;7.10;99.90;;;;;;5087781;28;20090;-84
2023/04/07 06:29:44;;;;;;;25.20;17.95;;;7.10;99.90;;;;;;5087907;28;20089;-84
2023/04/07 06:32:09;;;;;;;24.95;16.95;;;7.10;99.90;;;;;;5088403;28;20040;-84
2023/04/07 06:34:35;;;;;;;25.25;17.55;;;7.20;99.90;;;;;;5087216;28;20047;-82
2023/04/07 06:37:01;;;;;;;26.40;19.25;;;7.20;99.90;;;;;;5089142;28;20074;-83
2023/04/07 06:39:27;;;;;;;27.60;17.67;;;7.20;99.90;;;;;;5070161;28;20539;-82
2023/04/07 06:41:52;;;;;;;24.77;19.15;;;7.30;99.90;;;;;;5089791;28;20100;-83
2023/04/07 06:44:18;;;;;;;25.20;17.30;;;7.30;99.90;;;;;;5089505;28;20126;-83
2023/04/07 06:46:46;;;;;;;25.67;17.92;;;7.40;99.90;;;;;;5071468;28;20040;-83
2023/04/07 06:49:11;;;;;;;27.10;18.52;;;7.40;99.90;;;;;;5087972;28;20085;-83
2023/04/07 06:51:37;;;;;;;25.23;17.80;;;7.50;99.90;;;;;;5088893;28;20040;-83
2023/04/07 06:54:04;;;;;;;23.08;16.40;;;7.50;99.90;;;;;;5069987;28;20392;-83
2023/04/07 06:56:30;;;;;;;24.23;17.05;;;7.60;99.90;;;;;;5070555;28;20044;-83
2023/04/07 06:58:56;;;;;;;24.02;16.70;;;7.60;99.90;;;;;;5070663;28;20048;-83
2023/04/07 07:01:22;;;;;;;23.35;16.75;;;7.60;99.90;;;;;;5087957;28;20055;-83
2023/04/07 07:03:47;;;;;;;24.05;16.77;;;7.60;99.90;;;;;;5088580;28;20417;-83
2023/04/07 07:06:13;;;;;;;22.20;16.92;;;7.60;99.90;;;;;;5069917;28;20059;-83
2023/04/07 07:08:38;;;;;;;23.30;17.17;;;7.70;99.90;;;;;;5088487;28;20044;-83
2023/04/07 07:11:04;;;;;;;23.48;17.15;;;7.70;99.90;;;;;;5070088;28;20039;-83
2023/04/07 07:13:30;;;;;;;24.33;17.67;;;7.80;99.90;;;;;;5070765;28;20040;-83
2023/04/07 07:15:55;;;;;;;24.27;17.48;;;7.80;99.90;;;;;;5088339;28;20043;-83
2023/04/07 07:18:21;;;;;;;20.80;16.15;;;7.90;99.90;;;;;;5087685;28;20048;-83
2023/04/07 07:20:46;;;;;;;23.38;17.65;;;7.90;99.90;;;;;;5070300;28;20347;-83
2023/04/07 07:23:12;;;;;;;22.40;17.20;;;8.00;99.90;;;;;;5069421;28;20139;-83
2023/04/07 07:25:38;;;;;;;20.50;16.00;;;8.00;99.90;;;;;;5088823;28;20055;-83
2023/04/07 07:28:03;;;;;;;21.90;16.83;;;8.00;99.90;;;;;;5088083;28;20047;-83
2023/04/07 07:30:29;;;;;;;21.08;16.30;;;8.00;99.90;;;;;;5088656;28;20040;-83
2023/04/07 07:32:57;;;;;;;21.58;16.55;;;8.10;99.90;;;;;;5088297;28;20217;-83
2023/04/07 07:35:24;;;;;;;20.17;15.38;;;8.20;99.90;;;;;;5070208;28;20571;-83
2023/04/07 07:37:50;;;;;;;19.63;15.93;;;8.20;99.90;;;;;;5087659;28;20127;-83
2023/04/07 07:40:16;;;;;;;20.00;15.32;;;8.20;99.90;;;;;;5052470;28;20486;-83
2023/04/07 07:42:44;;;;;;;21.27;14.88;;;8.30;99.90;;;;;;5070126;28;20063;-84
2023/04/07 07:45:12;;;;;;;21.80;15.50;;;8.30;99.90;;;;;;5069911;28;20119;-83
2023/04/07 07:47:37;;;;;;;20.38;14.88;;;8.30;99.90;;;;;;5052520;28;20052;-83
2023/04/07 07:50:04;;;;;;;18.70;14.70;;;8.40;99.90;;;;;;5070378;28;20528;-83
2023/04/07 07:52:30;;;;;;;16.58;13.80;;;8.50;99.90;;;;;;5087718;28;20056;-83
2023/04/07 07:54:55;;;;;;;17.48;13.73;;;8.50;99.90;;;;;;5087500;28;20482;-84
2023/04/07 07:57:21;;;;;;;18.40;14.57;;;8.50;99.90;;;;;;5087767;28;20873;-84
2023/04/07 07:59:46;;;;;;;18.73;14.68;;;8.60;99.90;;;;;;5068734;28;20490;-84
2023/04/07 08:02:12;;;;;;;16.73;13.82;;;8.70;99.90;;;;;;5087862;28;20421;-83
2023/04/07 08:04:38;;;;;;;16.65;13.38;;;8.70;99.90;;;;;;5068920;28;20374;-84
2023/04/07 08:07:03;;;;;;;15.73;13.40;;;8.80;99.90;;;;;;5093533;28;20044;-84
2023/04/07 08:09:31;;;;;;;14.63;13.00;;;8.70;99.90;;;;;;5094164;28;20048;-83
2023/04/07 08:11:57;;;;;;;15.52;13.45;;;8.80;99.90;;;;;;5076207;28;20050;-83
2023/04/07 08:14:22;;;;;;;16.38;13.32;;;8.90;99.90;;;;;;5093484;28;20044;-83
2023/04/07 08:16:48;;;;;;;16.77;13.38;;;8.90;99.90;;;;;;5076247;28;20490;-83
2023/04/07 08:19:14;;;;;;;17.55;12.90;;;8.90;99.90;;;;;;5094310;28;20051;-83
2023/04/07 08:21:40;;;;;;;16.33;13.00;;;9.00;99.90;;;;;;5059841;28;20039;-83
2023/04/07 08:24:06;;;;;;;16.55;13.15;;;8.90;99.90;;;;;;5093213;28;20063;-82
2023/04/07 08:26:32;;;;;;;13.93;11.98;;;9.00;99.90;;;;;;5094500;28;20509;-83
2023/04/07 08:28:57;;;;;;;14.77;12.40;;;9.00;99.90;;;;;;5094710;28;20044;-84
2023/04/07 08:31:23;;;;;;;16.08;13.30;;;9.00;99.90;;;;;;5075197;28;20183;-83
2023/04/07 08:33:52;;;;;;;15.55;12.63;;;9.10;99.90;;;;;;5075789;28;20036;-83
2023/04/07 08:36:19;;;;;;;15.60;12.43;;;9.10;99.90;;;;;;5076782;28;20508;-83
2023/04/07 08:38:45;;;;;;;15.50;13.02;;;9.10;99.90;;;;;;5075790;28;20505;-83
2023/04/07 08:41:12;;;;;;;15.02;12.82;;;9.20;99.90;;;;;;5093565;28;20110;-82
2023/04/07 08:43:39;;;;;;;14.43;12.50;;;9.40;99.90;;;;;;5075843;28;20051;-83
2023/04/07 08:46:08;;;;;;;16.00;13.32;;;9.20;99.90;;;;;;5094389;28;20076;-83
2023/04/07 08:48:36;;;;;;;15.25;13.10;;;10.30;99.90;;;;;;5074663;28;20071;-83
2023/04/07 08:51:09;;;;;;;16.65;14.80;;;9.30;99.90;;;;;;5093177;28;20062;-83
2023/04/07 08:53:39;;;;;;;;;;;9.60;99.90;;;;;;5093472;28;20036;-84
2023/04/07 08:56:06;;;;;;;16.83;13.65;;;9.20;99.90;;;;;;5058920;28;19920;-83
2023/04/07 08:58:32;;;;;;;16.23;14.27;;;9.20;99.90;;;;;;5092948;28;20089;-83
2023/04/07 09:00:58;;;;;;;18.80;14.32;;;9.30;99.90;;;;;;5075898;28;20072;-83
2023/04/07 09:03:25;;;;;;;18.20;14.75;;;9.30;99.90;;;;;;5093905;28;20410;-84
2023/04/07 09:05:51;;;;;;;16.00;14.30;;;9.20;99.90;;;;;;5075984;28;20035;-84
2023/04/07 09:08:17;;;;;;;16.30;14.25;;;9.40;99.90;;;;;;5057939;28;20782;-84
2023/04/07 09:10:43;;;;;;;18.52;15.35;;;9.40;99.90;;;;;;5075708;28;20054;-85
2023/04/07 09:13:08;;;;;;;17.10;15.05;;;9.50;99.90;;;;;;5076773;28;20087;-83
2023/04/07 09:15:34;;;;;;;19.42;16.38;;;9.60;99.90;;;;;;5095820;28;20044;-83
2023/04/07 09:18:00;;;;;;;17.13;14.80;;;9.60;99.90;;;;;;5091293;28;20044;-83
2023/04/07 09:20:25;;;;;;;18.98;14.93;;;9.60;99.90;;;;;;5072530;28;20367;-83
2023/04/07 09:22:51;;;;;;;19.27;15.35;;;9.50;99.90;;;;;;5072099;28;20052;-83
2023/04/07 09:25:21;;;;;;;18.58;14.77;;;9.40;99.90;;;;;;5090336;28;20040;-83
2023/04/07 09:27:54;;;;;;;17.95;14.70;;;9.50;99.90;;;;;;5071785;28;20056;-83
2023/04/07 09:30:19;;;;;;;17.40;15.27;;;9.40;99.90;;;;;;5072537;28;20048;-82
2023/04/07 09:32:45;;;;;;;19.42;14.48;;;9.40;99.90;;;;;;5072248;28;20055;-83
2023/04/07 09:35:13;;;;;;;19.17;14.93;;;9.40;99.90;;;;;;5090226;28;20144;-82
2023/04/07 09:37:39;;;;;;;19.40;15.02;;;9.50;99.90;;;;;;5090177;28;20060;-82
2023/04/07 09:40:05;;;;;;;15.20;13.20;;;9.60;99.90;;;;;;5089320;28;20044;-83
2023/04/07 09:42:33;;;;;;;15.20;12.90;;;9.70;99.90;;;;;;5071845;28;20452;-82
2023/04/07 09:44:59;;;;;;;17.17;14.18;;;9.60;99.90;;;;;;5089883;28;20096;-83
2023/04/07 09:47:30;;;;;;;17.02;14.30;;;9.60;99.90;;;;;;5072404;28;20051;-82
2023/04/07 09:49:58;;;;;;;16.10;13.60;;;9.60;99.90;;;;;;5090322;28;20040;-82
2023/04/07 09:52:51;;;;;;;17.20;13.48;;;9.70;99.90;;;;;;5071975;28;20040;-83
2023/04/07 09:55:21;;;;;;;16.33;12.75;;;9.70;99.90;;;;;;5071747;28;20044;-83
2023/04/07 09:57:51;;;;;;;15.02;12.10;;;9.70;99.90;;;;;;5071790;28;20059;-83
2023/04/07 10:00:17;;;;;;;13.32;11.32;;;9.70;99.90;;;;;;5071195;28;20055;-83
2023/04/07 10:02:43;;;;;;;13.35;11.35;;;9.70;99.90;;;;;;5089236;28;20039;-83
2023/04/07 10:05:10;;;;;;;11.50;9.95;;;9.70;99.90;;;;;;5089575;28;20791;-83
2023/04/07 10:07:36;;;;;;;11.57;9.75;;;9.80;99.90;;;;;;5071217;28;20490;-83
2023/04/07 10:10:07;;;;;;;11.73;9.43;;;9.80;99.90;;;;;;5071635;28;20506;-83
2023/04/07 10:12:34;;;;;;;10.63;8.57;;;9.80;99.90;;;;;;5070207;28;20036;-83
2023/04/07 10:15:00;;;;;;;9.68;8.57;;;9.80;99.90;;;;;;5089435;28;20094;-83
2023/04/07 10:17:27;;;;;;;9.07;7.28;;;9.90;99.90;;;;;;5096152;28;20043;-82
2023/04/07 10:19:57;;;;;;;8.05;6.95;;;9.80;99.90;;;;;;5091551;28;20040;-83
2023/04/07 10:22:23;;;;;;;8.98;6.97;;;9.80;99.90;;;;;;5089612;28;20047;-83
2023/04/07 10:25:01;;;;;;;8.43;6.97;;;9.80;99.90;;;;;;5089024;28;20040;-83
2023/04/07 10:27:37;;;;;;;7.53;6.72;;;9.80;99.90;;;;;;5088884;28;20218;-83
2023/04/07 10:30:10;;;;;;;7.53;6.75;;;9.90;99.90;;;;;;5088743;28;20109;-83
2023/04/07 10:32:50;;;;;;;7.25;6.30;;;10.00;99.90;;;;;;5088975;28;20127;-83
2023/04/07 10:35:16;;;;;;;6.63;5.97;;;10.60;99.90;;;;;;5071534;28;20063;-83
2023/04/07 10:38:12;;;;;;;7.00;6.18;;;10.00;99.90;;;;;;5089034;28;20044;-83
2023/04/07 10:40:39;;;;;;;7.15;6.20;;;10.00;99.90;;;;;;5070655;28;20056;-82
2023/04/07 10:43:10;;;;;;;7.47;5.95;;;10.00;99.90;;;;;;5070542;28;20048;-83
2023/04/07 10:45:48;;;;;;;8.17;5.93;;;10.40;99.90;;;;;;5089435;28;20044;-83
2023/04/07 10:48:16;;;;;;;5.97;5.38;;;10.20;99.90;;;;;;5069737;28;20083;-83
2023/04/07 10:50:41;;;;;;;6.43;5.63;;;10.40;99.90;;;;;;5071316;28;20054;-83
2023/04/07 10:53:12;;;;;;;6.82;5.80;;;10.70;99.90;;;;;;5054552;28;20047;-84
2023/04/07 10:55:45;;;;;;;5.38;4.82;;;10.90;99.90;;;;;;5088777;28;20701;-83
2023/04/07 10:58:29;;;;;;;5.57;4.85;;;10.90;99.90;;;;;;5070145;28;20147;-83
2023/04/07 11:01:13;;;;;;;5.75;5.07;;;11.00;99.90;;;;;;5070683;28;20116;-83
2023/04/07 11:03:56;;;;;;;5.30;4.80;;;10.80;99.90;;;;;;5069458;28;20069;-83
2023/04/07 11:06:22;;;;;;;6.28;5.43;;;10.70;99.90;;;;;;5089143;28;20097;-84
2023/04/07 11:08:49;;;;;;;6.65;5.90;;;10.60;99.90;;;;;;5070275;28;20047;-87
2023/04/07 11:11:19;;;;;;;6.85;5.80;;;10.80;99.90;;;;;;5053490;28;20155;-82
2023/04/07 11:13:50;;;;;;;6.55;5.70;;;10.20;99.90;;;;;;5070610;28;20370;-82
2023/04/07 11:16:17;;;;;;;7.43;6.50;;;10.10;99.90;;;;;;5052816;28;20044;-83
2023/04/07 11:18:45;;;;;;;8.05;6.32;;;10.00;99.90;;;;;;5070283;28;20136;-82
2023/04/07 11:21:10;;;;;;;7.05;6.35;;;10.00;99.90;;;;;;5053288;28;20094;-83
2023/04/07 11:23:41;;;;;;;6.97;6.28;;;9.90;99.90;;;;;;5069445;28;20531;-84
2023/04/07 11:26:09;;;;;;;7.60;6.30;;;10.60;99.90;;;;;;5069705;28;20063;-83
2023/04/07 11:28:45;;;;;;;6.63;6.03;;;9.90;99.90;;;;;;5053169;28;20048;-84
2023/04/07 11:31:11;;;;;;;7.25;6.30;;;9.90;99.90;;;;;;5070175;28;20047;-82
2023/04/07 11:33:38;;;;;;;6.78;6.07;;;9.90;99.90;;;;;;5086891;28;20043;-83
2023/04/07 11:36:06;;;;;;;6.28;5.57;;;9.90;99.90;;;;;;5069629;28;20051;-82
2023/04/07 11:38:36;;;;;;;6.68;5.97;;;9.90;99.90;;;;;;5069392;28;20451;-82
2023/04/07 11:41:15;;;;;;;6.95;5.97;;;9.90;99.90;;;;;;5068666;28;20441;-82
2023/04/07 11:43:41;;;;;;;7.78;6.40;;;9.90;99.90;;;;;;5069494;28;20079;-82
2023/04/07 11:46:13;;;;;;;7.88;6.40;;;9.80;99.90;;;;;;5069944;28;20074;-82
2023/04/07 11:48:39;;;;;;;;;;;9.80;99.90;;;;;;5071175;28;20055;-82
2023/04/07 11:51:16;;;;;;;6.90;6.20;;;9.80;99.90;;;;;;5089993;28;19975;-82
2023/04/07 11:53:41;;;;;;;7.40;6.60;;;9.80;99.90;;;;;;5089577;28;20052;-82
2023/04/07 11:56:15;;;;;;;7.15;6.32;;;9.80;99.90;;;;;;5079852;28;20036;-82
2023/04/07 11:58:52;;;;;;;6.97;6.28;;;9.90;99.90;;;;;;5069325;28;20453;-82
2023/04/07 12:01:19;;;;;;;7.78;6.63;;;9.90;99.90;;;;;;5068537;28;20032;-82
2023/04/07 12:04:00;;;;;;;7.40;6.57;;;9.90;99.90;;;;;;5069288;28;20055;-82
2023/04/07 12:06:29;;;;;;;7.93;6.47;;;10.10;99.90;;;;;;5069257;28;20101;-82
2023/04/07 12:08:55;;;;;;;7.65;6.53;;;10.00;99.90;;;;;;5068651;28;20048;-83
2023/04/07 12:11:20;;;;;;;8.20;7.03;;;10.00;99.90;;;;;;5087914;28;20608;-82
2023/04/07 12:13:46;;;;;;;8.23;6.70;;;10.00;99.90;;;;;;5087334;28;20091;-82
2023/04/07 12:16:12;;;;;;;9.40;7.85;;;9.90;99.90;;;;;;5068761;28;20044;-82
2023/04/07 12:18:37;;;;;;;7.85;6.97;;;9.90;99.90;;;;;;5087655;28;20046;-82
2023/04/07 12:21:03;;;;;;;10.40;6.95;;;9.90;99.90;;;;;;5087752;28;20051;-82
2023/04/07 12:23:29;;;;;;;8.65;7.10;;;9.90;99.90;;;;;;5068431;28;20052;-82
2023/04/07 12:25:55;;;;;;;9.13;7.20;;;9.90;99.90;;;;;;5087856;28;20067;-82
2023/04/07 12:28:20;;;;;;;8.80;7.45;;;10.10;99.90;;;;;;5086895;28;20101;-82
2023/04/07 12:30:46;;;;;;;8.43;7.57;;;10.10;99.90;;;;;;5087106;28;20469;-83
2023/04/07 12:33:12;;;;;;;7.93;7.13;;;10.20;99.90;;;;;;5088074;28;20040;-82
2023/04/07 12:35:38;;;;;;;9.13;7.70;;;10.30;99.90;;;;;;5069569;28;20426;-82
2023/04/07 12:38:04;;;;;;;11.73;8.10;;;10.30;99.90;;;;;;5085186;28;20056;-83
2023/04/07 12:40:30;;;;;;;9.57;7.53;;;10.40;99.90;;;;;;5086660;28;20052;-82
2023/04/07 12:42:57;;;;;;;8.98;7.43;;;10.50;99.90;;;;;;5086843;28;20044;-83